Time;durP1;ratioP1;P1;durP2;ratioP2;P2;SDS_P1;SDS_P2;PMS_P1;PMS_P2;Temp;Humidity;BMP_temperature;BMP_pressure;BME280_temperature;BME280_humidity;BME280_pressure;Samples;Min_cycle;Max_cycle;Signal;HPM_P1;HPM_P2
2023/12/16 00:01:06;;;;;;;0.80;0.80;;;;;;;4.84;95.25;100801.13;5033685;28;20505;-75
2023/12/16 00:03:32;;;;;;;0.80;0.80;;;;;;;4.94;95.23;100800.19;5035043;28;20033;-76
2023/12/16 00:05:57;;;;;;;0.80;0.80;;;;;;;4.91;94.98;100806.91;5031303;28;20037;-77
2023/12/16 00:08:22;;;;;;;0.80;0.80;;;;;;;4.86;94.94;100803.88;5034414;28;20063;-75
2023/12/16 00:10:48;;;;;;;0.80;0.80;;;;;;;4.83;95.37;100798.31;5034505;28;20045;-76
2023/12/16 00:13:13;;;;;;;0.90;0.90;;;;;;;4.78;95.29;100800.56;5037699;28;20041;-77
2023/12/16 00:15:39;;;;;;;0.70;0.70;;;;;;;4.92;95.31;100799.09;5040538;28;20048;-76
2023/12/16 00:18:04;;;;;;;0.80;0.80;;;;;;;4.98;94.97;100802.25;5051645;28;20713;-76
2023/12/16 00:20:30;;;;;;;0.80;0.80;;;;;;;5.02;95.03;100814.94;5035343;28;20087;-75
2023/12/16 00:22:55;;;;;;;0.80;0.80;;;;;;;5.08;95.07;100810.19;5030868;28;20064;-75
2023/12/16 00:25:20;;;;;;;0.70;0.70;;;;;;;5.09;95.00;100796.16;5031766;28;20522;-76
2023/12/16 00:27:46;;;;;;;0.80;0.80;;;;;;;5.14;94.46;100797.47;5040018;28;20740;-76
2023/12/16 00:30:12;;;;;;;0.80;0.80;;;;;;;5.09;94.29;100796.16;5029110;28;20041;-76
2023/12/16 00:32:39;;;;;;;0.77;0.77;;;;;;;5.19;94.34;100805.78;5039765;28;20060;-76
2023/12/16 00:35:07;;;;;;;0.70;0.70;;;;;;;5.21;94.11;100809.47;5036986;28;20037;-76
2023/12/16 00:37:33;;;;;;;0.73;0.73;;;;;;;5.21;93.96;100803.28;5043499;28;20425;-76
2023/12/16 00:39:58;;;;;;;0.80;0.80;;;;;;;5.17;93.90;100810.00;5031433;28;20045;-76
2023/12/16 00:42:24;;;;;;;0.70;0.70;;;;;;;5.10;94.65;100811.25;5046675;28;20092;-76
2023/12/16 00:44:49;;;;;;;0.80;0.80;;;;;;;5.10;94.43;100810.31;5035387;28;20108;-76
2023/12/16 00:47:14;;;;;;;0.80;0.80;;;;;;;5.10;94.72;100805.03;5032796;28;20433;-76
2023/12/16 00:49:40;;;;;;;0.70;0.70;;;;;;;5.09;94.41;100812.03;5030292;28;20585;-76
2023/12/16 00:52:05;;;;;;;0.80;0.80;;;;;;;5.10;94.68;100823.53;5031662;28;20033;-76
2023/12/16 00:54:31;;;;;;;0.80;0.80;;;;;;;5.02;94.65;100817.59;5031106;28;20141;-76
2023/12/16 00:56:56;;;;;;;0.80;0.80;;;;;;;5.00;94.97;100831.50;5033524;28;20045;-76
2023/12/16 00:59:23;;;;;;;0.70;0.70;;;;;;;5.07;94.46;100831.22;5031340;28;20022;-77
2023/12/16 01:01:48;;;;;;;0.80;0.80;;;;;;;5.17;94.63;100839.13;5032989;28;20454;-77
2023/12/16 01:04:14;;;;;;;0.80;0.80;;;;;;;5.14;94.34;100844.19;5036890;28;20250;-76
2023/12/16 01:06:39;;;;;;;0.80;0.80;;;;;;;5.15;94.51;100851.31;5030513;28;20041;-76
2023/12/16 01:09:05;;;;;;;0.80;0.80;;;;;;;5.29;93.75;100848.09;5028747;28;20094;-76
2023/12/16 01:11:30;;;;;;;0.80;0.80;;;;;;;5.31;93.91;100850.88;5034424;28;20387;-76
2023/12/16 01:13:56;;;;;;;0.80;0.80;;;;;;;5.21;93.66;100850.91;5037431;28;20450;-76
2023/12/16 01:16:21;;;;;;;0.70;0.70;;;;;;;5.25;93.29;100842.44;5040146;28;20078;-76
2023/12/16 01:18:47;;;;;;;0.75;0.75;;;;;;;5.30;92.87;100834.06;5036778;28;20041;-76
2023/12/16 01:21:12;;;;;;;0.80;0.80;;;;;;;5.31;92.62;100829.69;5037435;28;20090;-76
2023/12/16 01:23:38;;;;;;;0.70;0.70;;;;;;;5.24;92.75;100830.91;5032345;28;20124;-77
2023/12/16 01:26:04;;;;;;;0.80;0.80;;;;;;;5.20;93.15;100847.34;5035309;28;20117;-76
2023/12/16 01:28:30;;;;;;;0.80;0.80;;;;;;;5.22;93.05;100844.81;5033019;28;20041;-76
2023/12/16 01:30:56;;;;;;;0.80;0.80;;;;;;;5.15;93.36;100853.97;5036749;28;20042;-76
2023/12/16 01:33:21;;;;;;;0.80;0.80;;;;;;;5.01;94.36;100851.88;5030415;28;20033;-76
2023/12/16 01:35:47;;;;;;;0.70;0.70;;;;;;;4.88;95.01;100844.59;5036022;28;20037;-76
2023/12/16 01:38:12;;;;;;;0.80;0.80;;;;;;;4.85;95.45;100834.69;5029686;28;20502;-77
2023/12/16 01:40:38;;;;;;;0.80;0.80;;;;;;;5.01;95.44;100831.63;5028447;28;20060;-77
2023/12/16 01:43:04;;;;;;;0.88;0.88;;;;;;;4.96;94.92;100827.66;5031652;28;20180;-77
2023/12/16 01:45:29;;;;;;;0.88;0.88;;;;;;;5.00;94.86;100836.78;5031582;28;20037;-77
2023/12/16 01:47:55;;;;;;;0.80;0.80;;;;;;;5.01;94.93;100847.50;5028813;28;20107;-77
2023/12/16 01:50:22;;;;;;;0.80;0.80;;;;;;;5.12;94.80;100849.31;5032039;28;20034;-77
2023/12/16 01:52:48;;;;;;;0.80;0.80;;;;;;;5.18;94.80;100848.94;5035226;28;20043;-77
2023/12/16 01:55:14;;;;;;;0.90;0.90;;;;;;;5.12;94.57;100845.75;5033225;28;20136;-77
2023/12/16 01:57:41;;;;;;;0.70;0.70;;;;;;;5.09;94.83;100853.44;5031206;28;20132;-76
2023/12/16 02:00:14;;;;;;;0.80;0.80;;;;;;;5.09;94.88;100853.44;5049903;28;20498;-77
2023/12/16 02:02:41;;;;;;;0.80;0.80;;;;;;;5.11;94.50;100854.50;5034770;28;20046;-76
2023/12/16 02:05:09;;;;;;;0.80;0.80;;;;;;;4.99;95.07;100854.38;5038394;28;20129;-77
2023/12/16 02:07:35;;;;;;;0.80;0.80;;;;;;;4.94;95.06;100857.44;5030218;28;20040;-77
2023/12/16 02:10:01;;;;;;;0.80;0.80;;;;;;;4.86;95.22;100860.34;5032812;28;20045;-76
2023/12/16 02:12:35;;;;;;;0.90;0.90;;;;;;;4.87;95.51;100848.97;5032677;28;20179;-77
2023/12/16 02:15:01;;;;;;;0.90;0.90;;;;;;;4.88;95.63;100857.81;5037333;28;20082;-77
2023/12/16 02:17:26;;;;;;;0.80;0.80;;;;;;;4.81;95.68;100850.16;5033109;28;20434;-76
2023/12/16 02:19:53;;;;;;;0.90;0.90;;;;;;;4.86;95.94;100868.28;5035052;28;20045;-76
2023/12/16 02:22:19;;;;;;;0.90;0.90;;;;;;;4.89;95.33;100859.69;5031987;28;20376;-77
2023/12/16 02:24:46;;;;;;;0.80;0.80;;;;;;;4.96;95.68;100864.69;5031477;28;20071;-77
2023/12/16 02:27:11;;;;;;;0.80;0.80;;;;;;;4.96;95.71;100855.84;5029816;28;20041;-77
2023/12/16 02:29:37;;;;;;;0.70;0.70;;;;;;;5.04;95.46;100861.00;5034487;28;20056;-77
2023/12/16 02:32:03;;;;;;;0.80;0.80;;;;;;;5.21;95.29;100862.41;5030593;28;20055;-76
2023/12/16 02:34:29;;;;;;;0.90;0.90;;;;;;;5.21;94.70;100878.28;5030447;28;20060;-77
2023/12/16 02:36:55;;;;;;;0.80;0.80;;;;;;;5.19;94.60;100868.38;5027590;28;20037;-76
2023/12/16 02:39:20;;;;;;;0.77;0.77;;;;;;;5.19;94.44;100860.44;5032226;28;20091;-76
2023/12/16 02:41:46;;;;;;;0.75;0.75;;;;;;;5.13;94.21;100858.22;5030862;28;20045;-77
2023/12/16 02:44:11;;;;;;;0.73;0.73;;;;;;;4.94;94.30;100861.00;5029091;28;20395;-77
2023/12/16 02:46:37;;;;;;;0.80;0.80;;;;;;;4.81;94.93;100850.16;5029810;28;20037;-76
2023/12/16 02:49:02;;;;;;;0.90;0.90;;;;;;;4.71;95.53;100866.97;5031541;28;20041;-76
2023/12/16 02:51:29;;;;;;;0.80;0.80;;;;;;;4.71;95.47;100858.09;5032027;28;20029;-76
2023/12/16 02:53:55;;;;;;;0.90;0.90;;;;;;;4.61;96.07;100857.31;5032020;28;20057;-77
2023/12/16 02:56:21;;;;;;;0.80;0.80;;;;;;;4.65;96.11;100858.50;5031992;28;20129;-76
2023/12/16 02:58:46;;;;;;;0.88;0.88;;;;;;;4.63;95.84;100857.44;5029048;28;20041;-76
2023/12/16 03:01:12;;;;;;;0.88;0.88;;;;;;;4.68;95.73;100864.03;5033736;28;20052;-76
2023/12/16 03:03:37;;;;;;;0.82;0.82;;;;;;;4.70;95.77;100861.56;5036691;28;20041;-76
2023/12/16 03:06:05;;;;;;;0.73;0.73;;;;;;;4.64;96.24;100859.28;5029926;28;20107;-76
2023/12/16 03:08:30;;;;;;;0.90;0.90;;;;;;;4.67;95.80;100863.91;5045386;28;20033;-76
2023/12/16 03:10:55;;;;;;;0.80;0.80;;;;;;;4.62;96.13;100861.81;5031280;28;20049;-76
2023/12/16 03:13:21;;;;;;;0.80;0.80;;;;;;;4.70;96.09;100866.84;5030913;28;20033;-75
2023/12/16 03:15:46;;;;;;;0.80;0.80;;;;;;;4.70;95.85;100862.47;5032799;28;20077;-76
2023/12/16 03:18:12;;;;;;;0.80;0.80;;;;;;;4.79;95.71;100862.31;5033117;28;20129;-76
2023/12/16 03:20:37;;;;;;;0.70;0.70;;;;;;;4.77;96.02;100864.84;5035819;28;20254;-76
2023/12/16 03:23:03;;;;;;;0.80;0.80;;;;;;;4.74;95.78;100867.22;5033066;28;20061;-76
2023/12/16 03:25:28;;;;;;;0.90;0.90;;;;;;;4.71;96.25;100872.25;5033088;28;20060;-77
2023/12/16 03:27:54;;;;;;;0.80;0.80;;;;;;;4.76;96.18;100878.88;5034467;28;20387;-77
2023/12/16 03:30:20;;;;;;;0.80;0.80;;;;;;;4.79;95.61;100883.47;5040655;28;20033;-76
2023/12/16 03:32:45;;;;;;;0.80;0.80;;;;;;;4.75;95.80;100881.38;5035408;28;20029;-77
2023/12/16 03:35:11;;;;;;;0.80;0.80;;;;;;;4.74;95.98;100882.16;5033739;28;20055;-75
2023/12/16 03:37:36;;;;;;;0.75;0.75;;;;;;;4.76;96.36;100876.22;5034159;28;20037;-76
2023/12/16 03:40:02;;;;;;;0.80;0.80;;;;;;;4.72;96.37;100875.81;5033251;28;20449;-76
2023/12/16 03:42:27;;;;;;;0.70;0.70;;;;;;;4.74;96.48;100877.78;5036877;28;20757;-76
2023/12/16 03:44:53;;;;;;;0.70;0.70;;;;;;;4.84;96.43;100868.97;5031890;28;20468;-76
2023/12/16 03:47:19;;;;;;;0.80;0.80;;;;;;;4.92;96.21;100859.00;5031099;28;20103;-76
2023/12/16 03:49:44;;;;;;;0.80;0.80;;;;;;;4.89;96.15;100873.84;5035453;28;20135;-76
2023/12/16 03:52:11;;;;;;;0.88;0.88;;;;;;;4.72;96.14;100866.16;5032976;28;20075;-76
2023/12/16 03:54:37;;;;;;;0.90;0.90;;;;;;;4.67;96.45;100872.78;5035609;28;20030;-76
2023/12/16 03:57:03;;;;;;;0.85;0.85;;;;;;;4.77;96.29;100877.13;5033679;28;20035;-77
2023/12/16 03:59:28;;;;;;;0.90;0.90;;;;;;;4.75;96.47;100874.38;5031672;28;20147;-77
2023/12/16 04:01:54;;;;;;;0.82;0.82;;;;;;;4.81;96.39;100874.88;5035483;28;20037;-77
2023/12/16 04:04:19;;;;;;;0.85;0.85;;;;;;;4.85;96.00;100879.66;5034834;28;20033;-77
2023/12/16 04:06:45;;;;;;;0.80;0.80;;;;;;;4.84;96.03;100882.19;5034373;28;20144;-77
2023/12/16 04:09:11;;;;;;;0.80;0.80;;;;;;;4.96;95.71;100879.66;5031289;28;20267;-77
2023/12/16 04:11:45;;;;;;;0.80;0.80;;;;;;;4.77;95.97;100882.44;5031466;28;20171;-76
2023/12/16 04:14:10;;;;;;;0.80;0.80;;;;;;;4.69;96.10;100884.41;5034199;28;20047;-76
2023/12/16 04:16:37;;;;;;;0.80;0.80;;;;;;;4.65;96.74;100887.59;5029780;28;20045;-77
2023/12/16 04:19:02;;;;;;;0.90;0.90;;;;;;;4.72;96.47;100889.03;5032158;28;20056;-77
2023/12/16 04:21:28;;;;;;;0.90;0.90;;;;;;;4.78;96.62;100877.25;5031286;28;20041;-77
2023/12/16 04:23:53;;;;;;;0.80;0.80;;;;;;;4.82;96.11;100876.72;5049032;28;20068;-77
2023/12/16 04:26:19;;;;;;;0.80;0.80;;;;;;;4.91;96.02;100875.69;5032385;28;20056;-76
2023/12/16 04:28:44;;;;;;;0.88;0.88;;;;;;;4.85;96.07;100889.31;5034608;28;20045;-76
2023/12/16 04:31:14;;;;;;;0.90;0.90;;;;;;;4.84;95.91;100885.75;5037971;28;20046;-76
2023/12/16 04:33:40;;;;;;;0.80;0.80;;;;;;;4.76;95.75;100883.22;5028542;28;20091;-76
2023/12/16 04:36:11;;;;;;;0.90;0.90;;;;;;;4.75;95.69;100879.66;5032220;28;20033;-76
2023/12/16 04:38:37;;;;;;;0.80;0.80;;;;;;;4.78;95.98;100885.19;5038250;28;20041;-76
2023/12/16 04:41:02;;;;;;;0.90;0.90;;;;;;;4.85;95.67;100891.97;5037089;28;20083;-76
2023/12/16 04:43:28;;;;;;;0.90;0.90;;;;;;;4.98;95.61;100883.34;5033519;28;20033;-76
2023/12/16 04:45:53;;;;;;;0.80;0.80;;;;;;;4.96;95.47;100884.94;5032481;28;20045;-76
2023/12/16 04:48:18;;;;;;;0.80;0.80;;;;;;;4.93;95.60;100887.31;5046919;28;20053;-76
2023/12/16 04:50:44;;;;;;;0.80;0.80;;;;;;;5.00;95.59;100889.69;5030688;28;20042;-77
2023/12/16 04:53:09;;;;;;;0.80;0.80;;;;;;;4.92;95.00;100880.16;5031901;28;20073;-76
2023/12/16 04:55:35;;;;;;;0.80;0.80;;;;;;;4.80;95.07;100882.69;5036007;28;20081;-76
2023/12/16 04:58:00;;;;;;;0.80;0.80;;;;;;;4.80;95.33;100878.34;5030403;28;20490;-76
2023/12/16 05:00:26;;;;;;;0.88;0.88;;;;;;;4.81;95.36;100879.25;5031407;28;20384;-76
2023/12/16 05:02:51;;;;;;;0.85;0.85;;;;;;;4.83;95.52;100873.28;5031171;28;20041;-76
2023/12/16 05:05:17;;;;;;;0.80;0.80;;;;;;;4.92;95.44;100872.25;5034398;28;20114;-77
2023/12/16 05:07:42;;;;;;;0.80;0.80;;;;;;;5.04;95.07;100875.94;5033796;28;20033;-77
2023/12/16 05:10:10;;;;;;;0.80;0.80;;;;;;;5.00;95.05;100882.69;5036246;28;20110;-76
2023/12/16 05:12:37;;;;;;;0.80;0.80;;;;;;;5.10;94.94;100885.31;5034099;28;20033;-76
2023/12/16 05:15:06;;;;;;;0.80;0.80;;;;;;;5.05;94.60;100891.94;5030684;28;20040;-76
2023/12/16 05:17:36;;;;;;;0.70;0.70;;;;;;;5.05;94.58;100897.22;5030922;28;20036;-77
2023/12/16 05:20:02;;;;;;;0.80;0.80;;;;;;;4.91;94.71;100903.06;5032566;28;20087;-76
2023/12/16 05:22:27;;;;;;;0.82;0.82;;;;;;;4.85;95.03;100899.88;5031632;28;20033;-76
2023/12/16 05:24:52;;;;;;;0.80;0.80;;;;;;;4.79;95.02;100892.34;5036369;28;20045;-77
2023/12/16 05:27:18;;;;;;;0.75;0.75;;;;;;;4.84;95.57;100898.97;5031436;28;20047;-78
2023/12/16 05:29:43;;;;;;;0.80;0.80;;;;;;;4.90;95.28;100898.56;5031970;28;20487;-77
2023/12/16 05:32:09;;;;;;;0.80;0.80;;;;;;;4.83;95.65;100899.75;5037683;28;20029;-77
2023/12/16 05:34:34;;;;;;;0.80;0.80;;;;;;;4.83;95.63;100898.81;5029775;28;20465;-76
2023/12/16 05:36:59;;;;;;;0.80;0.80;;;;;;;4.78;95.78;100898.41;5031179;28;20835;-76
2023/12/16 05:39:26;;;;;;;0.80;0.80;;;;;;;4.85;95.50;100903.47;5030434;28;20103;-76
2023/12/16 05:41:51;;;;;;;0.80;0.80;;;;;;;4.85;95.61;100892.88;5028251;28;20049;-76
2023/12/16 05:44:17;;;;;;;0.75;0.75;;;;;;;4.81;95.70;100898.69;5030002;28;20037;-77
2023/12/16 05:46:42;;;;;;;0.80;0.80;;;;;;;4.79;96.34;100897.66;5030798;28;20506;-76
2023/12/16 05:49:08;;;;;;;0.80;0.80;;;;;;;4.85;95.81;100899.88;5032431;28;20566;-76
2023/12/16 05:51:41;;;;;;;0.80;0.80;;;;;;;4.87;96.14;100895.66;5034555;28;20044;-76
2023/12/16 05:54:10;;;;;;;0.90;0.90;;;;;;;4.91;95.67;100892.47;5030263;28;20041;-76
2023/12/16 05:56:35;;;;;;;0.90;0.90;;;;;;;4.98;95.73;100901.84;5028802;28;20043;-77
2023/12/16 05:59:00;;;;;;;0.80;0.80;;;;;;;4.95;95.68;100894.59;5028236;28;20033;-78
2023/12/16 06:01:26;;;;;;;0.80;0.80;;;;;;;5.03;95.32;100892.59;5033859;28;20127;-77
2023/12/16 06:03:52;;;;;;;0.80;0.80;;;;;;;5.08;95.51;100893.94;5035977;28;20051;-77
2023/12/16 06:06:18;;;;;;;0.70;0.70;;;;;;;4.99;95.39;100906.38;5028706;28;20036;-77
2023/12/16 06:08:44;;;;;;;0.80;0.80;;;;;;;4.92;95.46;100914.56;5028986;28;20171;-77
2023/12/16 06:11:13;;;;;;;0.70;0.70;;;;;;;4.93;95.35;100921.69;5030110;28;20120;-75
2023/12/16 06:13:39;;;;;;;0.75;0.75;;;;;;;5.05;95.15;100921.03;5029345;28;20174;-76
2023/12/16 06:16:07;;;;;;;0.80;0.80;;;;;;;5.04;95.30;100915.63;5035736;28;20033;-76
2023/12/16 06:18:33;;;;;;;0.80;0.80;;;;;;;4.88;95.32;100916.94;5029048;28;20130;-76
2023/12/16 06:20:59;;;;;;;0.80;0.80;;;;;;;4.97;95.24;100913.22;5033400;28;20044;-77
2023/12/16 06:23:26;;;;;;;0.80;0.80;;;;;;;4.89;95.24;100910.88;5031260;28;20038;-77
2023/12/16 06:25:51;;;;;;;0.80;0.80;;;;;;;4.81;95.54;100922.50;5028417;28;20037;-76
2023/12/16 06:28:16;;;;;;;0.80;0.80;;;;;;;4.83;95.15;100919.97;5033127;28;20036;-77
2023/12/16 06:30:42;;;;;;;0.80;0.80;;;;;;;4.82;95.10;100926.97;5031572;28;20041;-77
2023/12/16 06:33:08;;;;;;;0.80;0.80;;;;;;;4.74;95.46;100930.66;5028432;28;20733;-76
2023/12/16 06:35:33;;;;;;;0.88;0.88;;;;;;;4.73;95.50;100930.53;5030488;28;20032;-76
2023/12/16 06:37:59;;;;;;;0.80;0.80;;;;;;;4.72;95.32;100928.69;5031001;28;20407;-76
2023/12/16 06:40:27;;;;;;;0.90;0.90;;;;;;;4.70;94.99;100932.94;5043967;28;20033;-77
2023/12/16 06:42:53;;;;;;;0.80;0.80;;;;;;;4.73;95.23;100920.88;5029254;28;20083;-76
2023/12/16 06:45:18;;;;;;;0.80;0.80;;;;;;;4.72;95.19;100926.06;5026998;28;20033;-77
2023/12/16 06:47:44;;;;;;;0.80;0.80;;;;;;;4.66;95.15;100918.53;5033533;28;20158;-77
2023/12/16 06:50:09;;;;;;;0.80;0.80;;;;;;;4.62;95.55;100921.69;5031460;28;20041;-77
2023/12/16 06:52:35;;;;;;;0.82;0.82;;;;;;;4.66;95.58;100928.19;5029684;28;20064;-77
2023/12/16 06:55:00;;;;;;;0.80;0.80;;;;;;;4.74;95.33;100919.16;5043341;28;20127;-77
2023/12/16 06:57:26;;;;;;;0.80;0.80;;;;;;;4.71;95.49;100924.22;5029507;28;20037;-77
2023/12/16 06:59:51;;;;;;;0.80;0.80;;;;;;;4.64;95.69;100917.44;5031119;28;20037;-77
2023/12/16 07:02:16;;;;;;;0.80;0.80;;;;;;;4.61;95.79;100931.34;5028154;28;20057;-77
2023/12/16 07:04:42;;;;;;;0.80;0.80;;;;;;;4.65;95.99;100924.59;5033290;28;20052;-77
2023/12/16 07:07:08;;;;;;;0.80;0.80;;;;;;;4.74;95.71;100921.81;5031938;28;20492;-77
2023/12/16 07:09:33;;;;;;;0.80;0.80;;;;;;;4.73;96.01;100931.47;5033829;28;20071;-77
2023/12/16 07:11:59;;;;;;;0.80;0.80;;;;;;;4.81;95.66;100930.44;5032857;28;20137;-77
2023/12/16 07:14:27;;;;;;;0.90;0.90;;;;;;;4.72;95.49;100934.00;5030020;28;20057;-77
2023/12/16 07:16:53;;;;;;;0.80;0.80;;;;;;;4.68;95.56;100937.16;5029858;28;20045;-77
2023/12/16 07:19:18;;;;;;;0.82;0.82;;;;;;;4.66;95.66;100934.38;5027785;28;20056;-77
2023/12/16 07:21:44;;;;;;;0.70;0.70;;;;;;;4.71;95.65;100932.16;5030671;28;20041;-77
2023/12/16 07:24:09;;;;;;;0.80;0.80;;;;;;;4.80;95.44;100927.66;5030821;28;20076;-77
2023/12/16 07:26:35;;;;;;;0.90;0.90;;;;;;;4.88;95.02;100938.09;5027662;28;20037;-77
2023/12/16 07:29:00;;;;;;;0.80;0.80;;;;;;;4.83;95.17;100949.06;5029062;28;20046;-77
2023/12/16 07:31:26;;;;;;;0.80;0.80;;;;;;;4.94;95.06;100940.38;5032658;28;20132;-77
2023/12/16 07:33:51;;;;;;;0.70;0.70;;;;;;;5.05;94.77;100947.50;5033964;28;20029;-77
2023/12/16 07:36:17;;;;;;;0.80;0.80;;;;;;;4.92;94.69;100941.94;5038706;28;20037;-77
2023/12/16 07:38:42;;;;;;;0.80;0.80;;;;;;;4.97;94.84;100945.91;5029139;28;20037;-77
2023/12/16 07:41:08;;;;;;;0.80;0.80;;;;;;;4.87;94.58;100953.84;5033389;28;20394;-77
2023/12/16 07:43:33;;;;;;;0.80;0.80;;;;;;;4.71;95.09;100956.88;5028893;28;20040;-77
2023/12/16 07:45:58;;;;;;;0.90;0.90;;;;;;;4.72;95.44;100963.06;5033827;28;20029;-77
2023/12/16 07:48:27;;;;;;;0.80;0.80;;;;;;;4.72;95.17;100963.06;5023649;28;20253;-77
2023/12/16 07:50:53;;;;;;;0.80;0.80;;;;;;;4.61;95.52;100965.72;5025673;28;20033;-76
2023/12/16 07:53:22;;;;;;;0.90;0.90;;;;;;;4.62;95.55;100966.63;5031185;28;20765;-76
2023/12/16 07:55:48;;;;;;;0.85;0.85;;;;;;;4.64;95.43;100971.25;5029480;28;20126;-76
2023/12/16 07:58:14;;;;;;;0.98;0.98;;;;;;;4.68;95.43;100974.16;5028245;28;20124;-76
2023/12/16 08:00:41;;;;;;;0.80;0.80;;;;;;;4.73;95.58;100976.41;5032484;28;20128;-76
2023/12/16 08:03:06;;;;;;;0.80;0.80;;;;;;;4.92;95.26;100976.31;5036502;28;20126;-76
2023/12/16 08:05:32;;;;;;;0.80;0.80;;;;;;;4.94;94.46;100979.13;5031920;28;20045;-76
2023/12/16 08:07:58;;;;;;;0.90;0.90;;;;;;;5.05;94.38;100975.69;5035596;28;20505;-76
2023/12/16 08:10:23;;;;;;;0.80;0.80;;;;;;;5.05;94.07;100981.88;5034104;28;20152;-77
2023/12/16 08:12:49;;;;;;;0.80;0.80;;;;;;;5.12;94.27;100988.63;5051197;28;20056;-77
2023/12/16 08:15:15;;;;;;;0.80;0.80;;;;;;;5.23;94.12;100986.94;5035063;28;20033;-77
2023/12/16 08:17:41;;;;;;;0.90;0.90;;;;;;;5.23;93.97;100984.28;5033055;28;20068;-77
2023/12/16 08:20:07;;;;;;;0.80;0.80;;;;;;;5.22;93.33;100990.34;5035008;28;20039;-77
2023/12/16 08:22:33;;;;;;;0.80;0.80;;;;;;;5.33;93.09;100984.28;5037146;28;20065;-78
2023/12/16 08:24:58;;;;;;;0.90;0.90;;;;;;;5.43;92.67;100992.22;5033794;28;20023;-77
2023/12/16 08:27:24;;;;;;;0.80;0.80;;;;;;;5.44;92.41;100983.47;5033477;28;20063;-77
2023/12/16 08:29:49;;;;;;;0.80;0.80;;;;;;;5.50;91.94;100989.28;5035161;28;20045;-77
2023/12/16 08:32:16;;;;;;;0.70;0.70;;;;;;;5.38;91.63;100996.19;5035887;28;20069;-77
2023/12/16 08:34:41;;;;;;;0.70;0.70;;;;;;;5.30;91.86;100995.50;5033037;28;20063;-77
2023/12/16 08:37:07;;;;;;;0.80;0.80;;;;;;;5.54;91.65;100995.78;5035280;28;20036;-77
2023/12/16 08:39:32;;;;;;;0.80;0.80;;;;;;;5.60;90.82;101002.50;5033570;28;20108;-78
2023/12/16 08:41:58;;;;;;;0.80;0.80;;;;;;;5.67;91.01;101014.56;5033515;28;20701;-78
2023/12/16 08:44:23;;;;;;;0.80;0.80;;;;;;;5.80;90.38;101017.47;5033395;28;20041;-78
2023/12/16 08:46:49;;;;;;;0.75;0.75;;;;;;;5.74;90.21;101006.31;5017389;28;20040;-78
2023/12/16 08:49:14;;;;;;;0.70;0.70;;;;;;;5.80;90.03;101012.16;5035949;28;20044;-78
2023/12/16 08:51:40;;;;;;;0.80;0.80;;;;;;;5.86;89.58;101007.38;5032117;28;20045;-77
2023/12/16 08:54:07;;;;;;;0.77;0.77;;;;;;;5.76;90.03;101020.66;5031779;28;20060;-77
2023/12/16 08:56:32;;;;;;;0.80;0.80;;;;;;;5.84;90.07;101013.31;5033774;28;20041;-78
2023/12/16 08:58:58;;;;;;;0.77;0.77;;;;;;;6.02;88.67;101019.28;5032484;28;20406;-78
2023/12/16 09:01:23;;;;;;;0.70;0.70;;;;;;;6.08;88.34;101020.72;5038417;28;20094;-78
2023/12/16 09:03:49;;;;;;;0.70;0.70;;;;;;;6.11;88.49;101026.28;5035088;28;20191;-78
2023/12/16 09:06:15;;;;;;;0.77;0.77;;;;;;;6.09;88.28;101026.97;5047977;28;20064;-77
2023/12/16 09:08:43;;;;;;;0.80;0.80;;;;;;;6.22;88.60;101024.50;5033111;28;20048;-78
2023/12/16 09:11:09;;;;;;;0.80;0.80;;;;;;;6.04;88.56;101023.00;5033870;28;20037;-78
2023/12/16 09:13:35;;;;;;;0.70;0.70;;;;;;;6.29;87.88;101034.84;5035827;28;20037;-78
2023/12/16 09:16:01;;;;;;;0.80;0.80;;;;;;;6.15;87.22;101043.38;5036844;28;20056;-77
2023/12/16 09:18:26;;;;;;;0.70;0.70;;;;;;;6.30;87.11;101044.66;5030331;28;20033;-77
2023/12/16 09:20:52;;;;;;;0.70;0.70;;;;;;;6.33;86.21;101044.00;5032334;28;20033;-79
2023/12/16 09:23:17;;;;;;;0.80;0.80;;;;;;;6.34;86.63;101046.75;5033408;28;20087;-77
2023/12/16 09:25:44;;;;;;;0.70;0.70;;;;;;;6.28;86.74;101042.69;5034747;28;20041;-76
2023/12/16 09:28:09;;;;;;;0.80;0.80;;;;;;;6.29;86.85;101048.09;5033253;28;20034;-76
2023/12/16 09:30:35;;;;;;;0.70;0.70;;;;;;;6.16;87.31;101050.53;5035937;28;20032;-77
2023/12/16 09:33:00;;;;;;;0.80;0.80;;;;;;;6.37;87.23;101054.97;5034966;28;20073;-77
2023/12/16 09:35:25;;;;;;;0.70;0.70;;;;;;;6.41;86.74;101050.81;5033259;28;20034;-78
2023/12/16 09:37:51;;;;;;;0.80;0.80;;;;;;;6.45;86.26;101059.97;5032651;28;20486;-77
2023/12/16 09:40:16;;;;;;;0.70;0.70;;;;;;;6.15;87.19;101054.91;5033722;28;20131;-77
2023/12/16 09:42:45;;;;;;;0.70;0.70;;;;;;;6.33;86.92;101051.94;5037903;28;20523;-78
2023/12/16 09:45:15;;;;;;;0.70;0.70;;;;;;;6.54;85.94;101056.34;5031683;28;20845;-77
2023/12/16 09:47:42;;;;;;;0.80;0.80;;;;;;;6.51;85.89;101055.16;5034031;28;20049;-78
2023/12/16 09:50:10;;;;;;;0.80;0.80;;;;;;;6.48;86.04;101054.94;5034734;28;20041;-78
2023/12/16 09:52:35;;;;;;;0.80;0.80;;;;;;;6.72;85.71;101059.59;5048153;28;20108;-77
2023/12/16 09:55:01;;;;;;;0.70;0.70;;;;;;;6.79;85.11;101043.34;5030138;28;20041;-78
2023/12/16 09:57:28;;;;;;;0.77;0.77;;;;;;;7.02;83.32;101039.91;5033189;28;20041;-78
2023/12/16 09:59:54;;;;;;;;;;;;;;;6.79;83.40;101038.06;5033009;28;20131;-78
2023/12/16 10:02:29;;;;;;;0.80;0.80;;;;;;;6.96;82.24;101036.78;5035559;28;19921;-78
2023/12/16 10:04:58;;;;;;;0.80;0.80;;;;;;;6.84;82.00;101034.03;5032096;28;20029;-77
2023/12/16 10:07:25;;;;;;;0.80;0.80;;;;;;;6.75;82.98;101030.63;5032246;28;20049;-77
2023/12/16 10:09:50;;;;;;;0.70;0.70;;;;;;;6.89;82.36;101035.34;5034871;28;20045;-77
2023/12/16 10:12:15;;;;;;;0.80;0.80;;;;;;;7.05;81.70;101033.94;5034692;28;20045;-77
2023/12/16 10:14:48;;;;;;;0.70;0.70;;;;;;;6.85;82.54;101032.31;5030629;28;20072;-77
2023/12/16 10:17:18;;;;;;;0.80;0.80;;;;;;;7.07;81.18;101029.66;5035366;28;20040;-78
2023/12/16 10:19:45;;;;;;;0.80;0.80;;;;;;;6.87;81.83;101018.38;5032912;28;20611;-77
2023/12/16 10:22:14;;;;;;;0.70;0.70;;;;;;;7.00;80.47;101022.03;5030382;28;20118;-77
2023/12/16 10:24:43;;;;;;;0.73;0.73;;;;;;;6.83;82.30;101026.88;5037598;28;20049;-77
2023/12/16 10:27:10;;;;;;;0.75;0.75;;;;;;;7.16;81.51;101020.69;5031373;28;20042;-77
2023/12/16 10:29:35;;;;;;;0.80;0.80;;;;;;;7.37;80.78;101018.81;5029053;28;20037;-78
2023/12/16 10:32:01;;;;;;;0.80;0.80;;;;;;;7.27;81.48;101029.50;5030436;28;20203;-77
2023/12/16 10:34:30;;;;;;;0.70;0.70;;;;;;;7.56;79.12;101020.25;5031688;28;20056;-77
2023/12/16 10:37:06;;;;;;;0.70;0.70;;;;;;;7.24;79.62;101021.31;5031166;28;20041;-78
2023/12/16 10:39:32;;;;;;;0.80;0.80;;;;;;;7.19;79.90;101022.69;5037302;28;20069;-76
2023/12/16 10:41:58;;;;;;;0.80;0.80;;;;;;;7.05;80.45;101024.25;5034205;28;20290;-77
2023/12/16 10:44:24;;;;;;;0.80;0.80;;;;;;;7.10;80.27;101029.91;5033057;28;20083;-77
2023/12/16 10:46:52;;;;;;;0.73;0.73;;;;;;;7.04;81.00;101024.09;5033668;28;20041;-77
2023/12/16 10:49:18;;;;;;;0.70;0.70;;;;;;;7.08;81.63;101023.53;5035305;28;20037;-77
2023/12/16 10:51:48;;;;;;;0.75;0.75;;;;;;;7.18;80.98;101012.84;5032465;28;20037;-77
2023/12/16 10:54:25;;;;;;;0.80;0.80;;;;;;;7.41;79.07;101018.25;5031360;28;20144;-77
2023/12/16 10:57:10;;;;;;;0.80;0.80;;;;;;;7.46;78.27;101015.94;5031490;28;20076;-77
2023/12/16 10:59:43;;;;;;;0.80;0.80;;;;;;;7.51;78.41;101021.63;5034997;28;20091;-77
2023/12/16 11:02:22;;;;;;;0.70;0.70;;;;;;;7.56;77.72;101005.22;5031012;28;20123;-77
2023/12/16 11:04:56;;;;;;;0.70;0.70;;;;;;;7.49;78.11;101002.00;5033398;28;20203;-77
2023/12/16 11:07:25;;;;;;;0.70;0.70;;;;;;;7.65;77.84;101000.63;5031466;28;20037;-77
2023/12/16 11:09:51;;;;;;;0.70;0.70;;;;;;;7.55;77.71;101006.03;5034971;28;20046;-76
2023/12/16 11:12:18;;;;;;;0.80;0.80;;;;;;;7.72;77.07;101005.63;5032479;28;20041;-77
2023/12/16 11:14:44;;;;;;;0.77;0.77;;;;;;;7.79;77.25;101012.31;5027367;28;20037;-76
2023/12/16 11:17:22;;;;;;;0.80;0.80;;;;;;;7.68;76.80;101002.59;5031023;28;20128;-77
2023/12/16 11:19:56;;;;;;;0.80;0.80;;;;;;;7.75;76.21;100994.28;5031950;28;20041;-77
2023/12/16 11:22:24;;;;;;;0.75;0.75;;;;;;;7.70;76.85;100995.66;5034269;28;20547;-78
2023/12/16 11:24:53;;;;;;;0.75;0.75;;;;;;;8.00;75.84;101006.78;5028718;28;20034;-76
2023/12/16 11:27:20;;;;;;;0.80;0.80;;;;;;;7.98;76.07;101004.00;5029287;28;20399;-76
2023/12/16 11:29:46;;;;;;;0.70;0.70;;;;;;;7.97;74.78;101011.06;5029182;28;20466;-76